createdAt,value
2022-10-09T00:01:10.463Z,72.60
2022-10-09T00:03:40.912Z,72.50
2022-10-09T00:06:09.741Z,72.60
2022-10-09T00:08:39.412Z,72.70
2022-10-09T00:11:07.645Z,72.70
2022-10-09T00:13:35.097Z,72.80
2022-10-09T00:16:04.439Z,72.80
2022-10-09T00:18:32.964Z,72.80
2022-10-09T00:21:02.352Z,73.10
2022-10-09T00:23:29.756Z,73.20
2022-10-09T00:26:00.544Z,73.20
2022-10-09T00:28:29.576Z,73.10
2022-10-09T00:30:57.216Z,73.30
2022-10-09T00:33:25.301Z,72.90
2022-10-09T00:35:52.710Z,73.10
2022-10-09T00:38:21.591Z,73.30
2022-10-09T00:40:48.987Z,73.10
2022-10-09T00:43:18.797Z,73.20
2022-10-09T00:45:55.391Z,73.00
2022-10-09T00:48:23.476Z,73.00
2022-10-09T00:50:55.248Z,73.00
2022-10-09T00:53:28.525Z,73.50
2022-10-09T00:55:56.748Z,73.40
2022-10-09T00:58:25.143Z,73.30
2022-10-09T01:00:53.809Z,73.30
2022-10-09T01:03:21.164Z,73.50
2022-10-09T01:06:00.556Z,73.50
2022-10-09T01:08:36.156Z,73.30
2022-10-09T01:11:10.084Z,73.70
2022-10-09T01:13:43.535Z,73.60
2022-10-09T01:16:23.484Z,73.90
2022-10-09T01:18:58.035Z,73.70
2022-10-09T01:21:30.145Z,73.70
2022-10-09T01:24:22.019Z,74.00
2022-10-09T01:27:04.872Z,74.20
2022-10-09T01:29:35.735Z,74.00
2022-10-09T01:32:04.609Z,73.80
2022-10-09T01:34:33.306Z,74.30
2022-10-09T01:37:01.193Z,74.70
2022-10-09T01:39:30.295Z,74.40
2022-10-09T01:41:59.293Z,74.20
2022-10-09T01:44:28.785Z,74.30
2022-10-09T01:46:57.123Z,74.40
2022-10-09T01:49:38.097Z,74.20
2022-10-09T01:52:15.075Z,74.20
2022-10-09T01:54:52.769Z,74.10
2022-10-09T01:57:29.166Z,74.00
2022-10-09T01:59:59.816Z,74.00
2022-10-09T02:02:27.937Z,74.40
2022-10-09T02:04:56.087Z,74.60
2022-10-09T02:07:24.950Z,74.70
2022-10-09T02:09:56.297Z,74.70
2022-10-09T02:12:28.509Z,74.40
2022-10-09T02:14:56.101Z,74.50
2022-10-09T02:17:29.250Z,74.20
2022-10-09T02:20:01.760Z,74.40
2022-10-09T02:22:30.885Z,74.20
2022-10-09T02:25:01.536Z,74.20
2022-10-09T02:27:31.171Z,74.30
2022-10-09T02:30:00.186Z,74.60
2022-10-09T02:32:28.397Z,74.90
2022-10-09T02:34:55.862Z,75.10
2022-10-09T02:37:24.428Z,75.00
2022-10-09T02:39:51.839Z,74.90
2022-10-09T02:42:19.247Z,74.90
2022-10-09T02:44:48.079Z,74.90
2022-10-09T02:47:15.470Z,74.90
2022-10-09T02:49:43.106Z,74.90
2022-10-09T02:52:10.718Z,74.80
2022-10-09T02:54:38.449Z,74.90
2022-10-09T02:57:05.943Z,74.60
2022-10-09T02:59:33.353Z,74.60
2022-10-09T03:02:02.256Z,74.70
2022-10-09T03:04:29.736Z,74.70
2022-10-09T03:06:57.188Z,74.60
2022-10-09T03:09:24.920Z,74.90
2022-10-09T03:11:52.762Z,75.00
2022-10-09T03:14:20.147Z,74.90
2022-10-09T03:16:47.438Z,75.30
2022-10-09T03:19:16.179Z,75.70
2022-10-09T03:21:43.546Z,76.00
2022-10-09T03:24:13.048Z,75.90
2022-10-09T03:26:40.529Z,76.20
2022-10-09T03:29:07.857Z,75.50
2022-10-09T03:31:52.759Z,75.20
2022-10-09T03:34:21.818Z,75.30
2022-10-09T03:36:49.404Z,75.20
2022-10-09T03:39:16.792Z,75.30
2022-10-09T03:41:44.690Z,75.20
2022-10-09T03:44:12.118Z,75.40
2022-10-09T03:46:42.568Z,75.10
2022-10-09T03:49:10.104Z,74.80
2022-10-09T03:51:38.915Z,75.20
2022-10-09T03:54:07.532Z,74.80
2022-10-09T03:56:35.230Z,74.60
2022-10-09T03:59:05.523Z,74.60
2022-10-09T04:01:33.064Z,74.70
2022-10-09T04:04:03.182Z,74.80
2022-10-09T04:06:30.594Z,74.80
2022-10-09T04:09:04.422Z,74.90
2022-10-09T04:11:31.887Z,74.90
2022-10-09T04:14:01.367Z,75.30
2022-10-09T04:16:29.684Z,75.10
2022-10-09T04:18:57.190Z,75.30
2022-10-09T04:21:24.981Z,75.50
2022-10-09T04:23:52.700Z,75.50
2022-10-09T04:26:22.318Z,75.50
2022-10-09T04:28:49.848Z,75.90
2022-10-09T04:31:20.243Z,75.70
2022-10-09T04:33:47.671Z,75.70
2022-10-09T04:36:16.636Z,75.40
2022-10-09T04:38:44.131Z,75.00
2022-10-09T04:41:11.546Z,75.50
2022-10-09T04:43:40.212Z,75.30
2022-10-09T04:46:10.463Z,75.00
2022-10-09T04:48:39.002Z,75.30
2022-10-09T04:51:07.241Z,75.00
2022-10-09T04:53:36.514Z,75.00
2022-10-09T04:56:06.329Z,75.40
2022-10-09T04:58:39.732Z,75.30
2022-10-09T05:01:10.164Z,74.80
2022-10-09T05:03:37.902Z,75.40
2022-10-09T05:06:07.659Z,75.50
2022-10-09T05:08:36.090Z,75.50
2022-10-09T05:11:05.743Z,75.30
2022-10-09T05:13:36.609Z,75.80
2022-10-09T05:16:05.681Z,75.90
2022-10-09T05:18:35.339Z,75.70
2022-10-09T05:21:04.990Z,75.60
2022-10-09T05:23:32.961Z,76.00
2022-10-09T05:26:02.838Z,76.40
2022-10-09T05:28:30.486Z,76.10
2022-10-09T05:30:57.971Z,75.90
2022-10-09T05:33:25.518Z,76.20
2022-10-09T05:35:56.730Z,76.00
2022-10-09T05:38:25.828Z,76.30
2022-10-09T05:40:54.292Z,76.50
2022-10-09T05:43:23.575Z,75.90
2022-10-09T05:45:51.101Z,76.40
2022-10-09T05:48:18.879Z,76.40
2022-10-09T05:50:46.776Z,76.60
2022-10-09T05:53:15.450Z,76.50
2022-10-09T05:55:42.876Z,76.30
2022-10-09T05:58:10.176Z,76.50
2022-10-09T06:00:37.572Z,76.60
2022-10-09T06:03:06.223Z,76.60
2022-10-09T06:05:33.670Z,76.70
2022-10-09T06:08:01.143Z,76.80
2022-10-09T06:10:32.506Z,76.60
2022-10-09T06:13:00.681Z,76.50
2022-10-09T06:15:28.127Z,76.70
2022-10-09T06:17:55.610Z,76.80
2022-10-09T06:20:23.080Z,77.00
2022-10-09T06:22:51.705Z,76.70
2022-10-09T06:25:19.407Z,77.10
2022-10-09T06:27:48.079Z,77.30
2022-10-09T06:30:15.939Z,77.10
2022-10-09T06:32:43.603Z,76.60
2022-10-09T06:35:11.144Z,77.30
2022-10-09T06:37:38.561Z,77.50
2022-10-09T06:40:06.959Z,77.30
2022-10-09T06:42:34.470Z,77.20
2022-10-09T06:45:09.976Z,77.30
2022-10-09T06:47:38.808Z,77.70
2022-10-09T06:50:07.682Z,77.40
2022-10-09T06:52:35.191Z,77.00
2022-10-09T06:55:02.596Z,76.80
2022-10-09T06:57:30.124Z,76.70
2022-10-09T06:59:57.580Z,76.20
2022-10-09T07:02:26.284Z,75.50
2022-10-09T07:04:53.705Z,75.70
2022-10-09T07:07:21.434Z,75.40
2022-10-09T07:09:48.884Z,75.50
2022-10-09T07:12:16.330Z,74.70
2022-10-09T07:14:43.805Z,74.70
2022-10-09T07:17:11.179Z,74.20
2022-10-09T07:19:40.426Z,74.10
2022-10-09T07:22:11.397Z,73.10
2022-10-09T07:24:38.857Z,72.80
2022-10-09T07:27:06.230Z,72.50
2022-10-09T07:29:36.593Z,72.60
2022-10-09T07:32:09.563Z,72.10
2022-10-09T07:34:39.266Z,71.50
2022-10-09T07:37:06.780Z,70.70
2022-10-09T07:39:35.493Z,70.20
2022-10-09T07:42:03.812Z,70.20
2022-10-09T07:44:31.285Z,68.80
2022-10-09T07:46:58.630Z,68.60
2022-10-09T07:49:26.318Z,67.70
2022-10-09T07:51:55.732Z,67.60
2022-10-09T07:54:23.271Z,67.70
2022-10-09T07:56:50.645Z,67.00
2022-10-09T07:59:18.117Z,66.50
2022-10-09T08:01:45.818Z,66.10
2022-10-09T08:04:13.361Z,65.20
2022-10-09T08:06:40.758Z,64.20
2022-10-09T08:09:09.768Z,64.40
2022-10-09T08:11:40.602Z,63.80
2022-10-09T08:14:14.195Z,63.10
2022-10-09T08:16:45.993Z,62.70
2022-10-09T08:19:13.957Z,61.70
2022-10-09T08:21:41.537Z,61.90
2022-10-09T08:24:12.121Z,61.70
2022-10-09T08:26:39.764Z,62.00
2022-10-09T08:29:08.575Z,61.40
2022-10-09T08:31:35.950Z,59.80
2022-10-09T08:34:03.909Z,59.70
2022-10-09T08:36:32.142Z,58.30
2022-10-09T08:38:59.747Z,56.90
2022-10-09T08:41:42.284Z,57.30
2022-10-09T08:44:18.381Z,57.30
2022-10-09T08:46:56.225Z,55.20
2022-10-09T08:49:28.671Z,54.80
2022-10-09T08:51:59.349Z,55.00
2022-10-09T08:54:33.208Z,55.00
2022-10-09T08:57:04.967Z,54.10
2022-10-09T08:59:32.522Z,52.40
2022-10-09T09:02:08.602Z,52.50
2022-10-09T09:04:50.009Z,52.50
2022-10-09T09:07:28.040Z,52.00
2022-10-09T09:09:59.930Z,49.50
2022-10-09T09:12:34.706Z,50.30
2022-10-09T09:15:18.708Z,48.50
2022-10-09T09:17:54.112Z,48.30
2022-10-09T09:20:26.386Z,48.70
2022-10-09T09:22:55.449Z,46.70
2022-10-09T09:25:24.579Z,46.70
2022-10-09T09:27:57.190Z,47.40
2022-10-09T09:30:29.224Z,47.20
2022-10-09T09:33:08.787Z,47.30
2022-10-09T09:35:46.827Z,47.60
2022-10-09T09:38:15.137Z,46.60
2022-10-09T09:40:47.056Z,46.10
2022-10-09T09:43:19.275Z,44.20
2022-10-09T09:45:47.420Z,44.70
2022-10-09T09:48:17.606Z,46.20
2022-10-09T09:50:56.073Z,44.90
2022-10-09T09:53:35.888Z,44.10
2022-10-09T09:56:03.838Z,44.30
2022-10-09T09:58:36.869Z,45.10
2022-10-09T10:01:06.547Z,45.10
2022-10-09T10:03:35.093Z,42.90
2022-10-09T10:06:03.014Z,44.50
2022-10-09T10:08:32.567Z,44.10
2022-10-09T10:11:02.202Z,41.30
2022-10-09T10:13:35.916Z,42.00
2022-10-09T10:16:04.253Z,42.80
2022-10-09T10:18:38.608Z,41.10
2022-10-09T10:21:12.871Z,41.70
2022-10-09T10:23:42.750Z,40.10
2022-10-09T10:26:24.801Z,40.50
2022-10-09T10:28:58.865Z,41.00
2022-10-09T10:31:35.891Z,39.60
2022-10-09T10:34:07.497Z,39.00
2022-10-09T10:36:36.213Z,39.00
2022-10-09T10:39:11.291Z,39.70
2022-10-09T10:41:45.187Z,39.50
2022-10-09T10:44:22.917Z,39.20
2022-10-09T10:46:55.068Z,40.00
2022-10-09T10:49:24.251Z,40.00
2022-10-09T10:52:08.290Z,38.30
2022-10-09T10:54:40.998Z,39.90
2022-10-09T10:57:13.914Z,39.80
2022-10-09T10:59:53.381Z,39.30
2022-10-09T11:02:48.444Z,39.70
2022-10-09T11:05:29.053Z,39.30
2022-10-09T11:08:11.330Z,40.10
2022-10-09T11:10:50.374Z,40.40
2022-10-09T11:13:23.870Z,39.10
2022-10-09T11:16:01.691Z,40.90
2022-10-09T11:18:46.122Z,41.00
2022-10-09T11:21:29.777Z,40.20
2022-10-09T11:24:24.102Z,43.30
2022-10-09T11:27:02.386Z,41.20
2022-10-09T11:29:37.221Z,41.90
2022-10-09T11:32:11.939Z,42.40
2022-10-09T11:34:44.541Z,42.70
2022-10-09T11:37:17.896Z,42.60
2022-10-09T11:39:46.120Z,43.30
2022-10-09T11:42:18.265Z,43.70
2022-10-09T11:44:53.631Z,40.90
2022-10-09T11:47:30.811Z,42.90
2022-10-09T11:50:14.317Z,43.60
2022-10-09T11:52:49.856Z,41.40
2022-10-09T11:55:20.399Z,41.80
2022-10-09T11:57:48.254Z,40.80
2022-10-09T12:00:17.189Z,41.40
2022-10-09T12:02:56.747Z,42.10
2022-10-09T12:05:37.600Z,41.20
2022-10-09T12:08:16.893Z,41.20
2022-10-09T12:10:52.528Z,40.50
2022-10-09T12:13:41.277Z,40.20
2022-10-09T12:16:11.686Z,40.50
2022-10-09T12:18:45.469Z,41.00
2022-10-09T12:21:24.327Z,41.70
2022-10-09T12:23:53.041Z,41.10
2022-10-09T12:26:23.762Z,40.20
2022-10-09T12:28:54.538Z,41.40
2022-10-09T12:31:25.819Z,42.70
2022-10-09T12:33:59.018Z,42.70
2022-10-09T12:36:28.662Z,41.80
2022-10-09T12:38:56.140Z,41.50
2022-10-09T12:41:27.434Z,42.30
2022-10-09T12:43:56.661Z,41.30
2022-10-09T12:46:30.331Z,42.20
2022-10-09T12:49:00.939Z,42.00
2022-10-09T12:51:31.255Z,43.20
2022-10-09T12:53:58.941Z,42.90
2022-10-09T12:56:29.694Z,43.10
2022-10-09T12:58:58.499Z,43.50
2022-10-09T13:01:26.393Z,41.40
2022-10-09T13:03:56.268Z,41.40
2022-10-09T13:06:27.792Z,40.40
2022-10-09T13:08:57.917Z,40.40
2022-10-09T13:11:33.466Z,41.00
2022-10-09T13:14:01.536Z,40.80
2022-10-09T13:16:40.097Z,41.80
2022-10-09T13:19:23.014Z,42.60
2022-10-09T13:22:05.381Z,42.00
2022-10-09T13:24:32.856Z,42.50
2022-10-09T13:27:00.353Z,42.60
2022-10-09T13:29:27.777Z,41.80
2022-10-09T13:31:55.101Z,41.00
2022-10-09T13:34:24.540Z,42.10
2022-10-09T13:36:52.059Z,40.80
2022-10-09T13:39:20.827Z,40.30
2022-10-09T13:41:52.477Z,39.70
2022-10-09T13:44:19.869Z,41.10
2022-10-09T13:46:47.286Z,39.70
2022-10-09T13:49:15.280Z,41.10
2022-10-09T13:51:42.643Z,39.20
2022-10-09T13:54:10.010Z,40.00
2022-10-09T13:56:38.704Z,39.40
2022-10-09T13:59:06.058Z,38.30
2022-10-09T14:01:33.466Z,38.50
2022-10-09T14:04:01.026Z,38.90
2022-10-09T14:06:28.435Z,38.90
2022-10-09T14:08:57.272Z,37.70
2022-10-09T14:11:24.629Z,38.60
2022-10-09T14:13:53.331Z,38.10
2022-10-09T14:16:21.183Z,37.50
2022-10-09T14:18:48.483Z,38.50
2022-10-09T14:21:16.161Z,37.90
2022-10-09T14:23:43.663Z,38.70
2022-10-09T14:26:11.098Z,38.80
2022-10-09T14:28:38.629Z,39.30
2022-10-09T14:31:08.177Z,40.00
2022-10-09T14:33:35.768Z,39.00
2022-10-09T14:36:07.276Z,39.10
2022-10-09T14:38:37.243Z,38.80
2022-10-09T14:41:04.913Z,39.80
2022-10-09T14:43:32.678Z,39.90
2022-10-09T14:46:04.452Z,41.30
2022-10-09T14:48:33.838Z,41.70
2022-10-09T14:51:05.667Z,40.60
2022-10-09T14:53:33.902Z,42.00
2022-10-09T14:56:02.220Z,41.50
2022-10-09T14:58:30.569Z,41.50
2022-10-09T15:00:58.430Z,42.30
2022-10-09T15:03:26.845Z,42.10
2022-10-09T15:05:58.972Z,42.50
2022-10-09T15:08:26.720Z,43.30
2022-10-09T15:10:54.517Z,43.50
2022-10-09T15:13:22.135Z,44.30
2022-10-09T15:15:49.657Z,45.20
2022-10-09T15:18:17.137Z,45.10
2022-10-09T15:20:45.434Z,45.10
2022-10-09T15:23:14.088Z,46.00
2022-10-09T15:25:48.625Z,45.40
2022-10-09T15:28:19.206Z,45.90
2022-10-09T15:30:47.423Z,46.80
2022-10-09T15:33:14.777Z,47.30
2022-10-09T15:35:42.224Z,47.40
2022-10-09T15:38:15.127Z,47.40
2022-10-09T15:40:45.048Z,47.60
2022-10-09T15:43:12.660Z,47.80
2022-10-09T15:45:40.100Z,48.30
2022-10-09T15:48:08.419Z,48.50
2022-10-09T15:50:36.117Z,48.90
2022-10-09T15:53:10.309Z,49.20
2022-10-09T15:55:39.046Z,49.50
2022-10-09T15:58:07.127Z,49.50
2022-10-09T16:00:38.507Z,49.90
2022-10-09T16:03:06.516Z,50.10
2022-10-09T16:05:37.339Z,50.30
2022-10-09T16:08:05.154Z,50.50
2022-10-09T16:10:32.640Z,50.50
2022-10-09T16:13:01.295Z,50.70
2022-10-09T16:15:28.771Z,50.90
2022-10-09T16:17:56.414Z,51.20
2022-10-09T16:20:23.840Z,51.70
2022-10-09T16:22:52.057Z,51.90
2022-10-09T16:25:19.706Z,52.10
2022-10-09T16:27:47.090Z,52.50
2022-10-09T16:30:16.701Z,52.70
2022-10-09T16:32:44.103Z,52.80
2022-10-09T16:35:11.498Z,53.20
2022-10-09T16:37:38.951Z,53.20
2022-10-09T16:40:07.123Z,53.40
2022-10-09T16:42:34.594Z,53.50
2022-10-09T16:45:02.178Z,53.80
2022-10-09T16:47:31.133Z,53.90
2022-10-09T16:49:59.153Z,54.20
2022-10-09T16:52:26.641Z,54.50
2022-10-09T16:54:57.137Z,54.80
2022-10-09T16:57:27.636Z,54.70
2022-10-09T16:59:55.017Z,54.90
2022-10-09T17:02:22.404Z,55.10
2022-10-09T17:04:51.165Z,55.40
2022-10-09T17:07:19.605Z,55.60
2022-10-09T17:09:47.029Z,55.70
2022-10-09T17:12:14.393Z,56.00
2022-10-09T17:14:41.960Z,56.30
2022-10-09T17:17:11.499Z,56.40
2022-10-09T17:19:39.643Z,56.30
2022-10-09T17:22:08.357Z,56.50
2022-10-09T17:24:35.665Z,56.50
2022-10-09T17:27:04.827Z,56.80
2022-10-09T17:29:32.149Z,56.80
2022-10-09T17:31:59.482Z,57.10
2022-10-09T17:34:34.241Z,57.30
2022-10-09T17:37:01.790Z,57.50
2022-10-09T17:39:30.610Z,57.40
2022-10-09T17:41:58.158Z,57.80
2022-10-09T17:44:28.451Z,57.60
2022-10-09T17:46:55.914Z,58.00
2022-10-09T17:49:23.390Z,58.20
2022-10-09T17:51:52.668Z,58.20
2022-10-09T17:54:20.066Z,58.00
2022-10-09T17:56:48.773Z,58.50
2022-10-09T17:59:16.199Z,59.00
2022-10-09T18:01:43.899Z,59.00
2022-10-09T18:04:14.986Z,59.00
2022-10-09T18:06:42.580Z,58.80
2022-10-09T18:09:10.298Z,59.70
2022-10-09T18:11:37.908Z,59.60
2022-10-09T18:14:07.438Z,60.00
2022-10-09T18:16:37.910Z,59.90
2022-10-09T18:19:08.866Z,60.00
2022-10-09T18:21:36.591Z,60.20
2022-10-09T18:24:04.412Z,60.60
2022-10-09T18:26:31.954Z,60.90
2022-10-09T18:29:00.214Z,61.20
2022-10-09T18:31:29.166Z,61.30
2022-10-09T18:33:57.617Z,61.50
2022-10-09T18:36:31.314Z,61.70
2022-10-09T18:39:01.572Z,62.00
2022-10-09T18:41:29.836Z,62.00
2022-10-09T18:43:59.950Z,62.20
2022-10-09T18:46:33.945Z,62.30
2022-10-09T18:49:02.016Z,62.20
2022-10-09T18:51:30.284Z,62.40
2022-10-09T18:54:01.554Z,62.40
2022-10-09T18:56:32.703Z,62.40
2022-10-09T18:59:01.756Z,62.70
2022-10-09T19:01:30.564Z,62.60
2022-10-09T19:03:58.162Z,62.70
2022-10-09T19:06:25.806Z,62.60
2022-10-09T19:08:57.637Z,63.10
2022-10-09T19:11:32.339Z,62.90
2022-10-09T19:14:00.786Z,63.30
2022-10-09T19:16:31.338Z,62.90
2022-10-09T19:18:59.385Z,63.10
2022-10-09T19:21:26.985Z,63.00
2022-10-09T19:23:55.013Z,63.10
2022-10-09T19:26:23.687Z,63.10
2022-10-09T19:28:51.871Z,63.90
2022-10-09T19:31:19.264Z,63.70
2022-10-09T19:33:48.429Z,63.90
2022-10-09T19:36:15.898Z,63.80
2022-10-09T19:38:43.994Z,64.10
2022-10-09T19:41:12.993Z,64.20
2022-10-09T19:43:41.135Z,63.90
2022-10-09T19:46:10.835Z,64.10
2022-10-09T19:48:41.258Z,64.10
2022-10-09T19:51:12.032Z,64.10
2022-10-09T19:53:47.760Z,64.00
2022-10-09T19:56:17.242Z,64.00
2022-10-09T19:58:46.533Z,63.80
2022-10-09T20:01:16.614Z,64.00
2022-10-09T20:03:44.759Z,64.20
2022-10-09T20:06:14.014Z,63.60
2022-10-09T20:08:42.697Z,64.20
2022-10-09T20:11:11.939Z,63.80
2022-10-09T20:13:41.207Z,64.20
2022-10-09T20:16:11.007Z,64.30
2022-10-09T20:18:40.998Z,64.40
2022-10-09T20:21:08.425Z,65.00
2022-10-09T20:23:37.093Z,64.80
2022-10-09T20:26:07.613Z,64.70
2022-10-09T20:28:36.970Z,64.60
2022-10-09T20:31:07.891Z,65.00
2022-10-09T20:33:36.509Z,65.10
2022-10-09T20:36:04.813Z,64.70
2022-10-09T20:38:32.497Z,65.00
2022-10-09T20:41:07.366Z,64.80
2022-10-09T20:43:35.104Z,64.90
2022-10-09T20:46:05.842Z,65.20
2022-10-09T20:48:33.412Z,64.90
2022-10-09T20:51:01.084Z,65.10
2022-10-09T20:53:28.573Z,65.20
2022-10-09T20:55:59.696Z,65.20
2022-10-09T20:58:28.761Z,65.70
2022-10-09T21:00:56.206Z,65.50
2022-10-09T21:03:24.134Z,65.50
2022-10-09T21:05:52.872Z,65.80
2022-10-09T21:08:20.189Z,65.80
2022-10-09T21:10:49.102Z,65.40
2022-10-09T21:13:24.485Z,66.00
2022-10-09T21:15:53.573Z,65.60
2022-10-09T21:18:21.681Z,65.80
2022-10-09T21:20:49.579Z,65.60
2022-10-09T21:23:18.720Z,66.00
2022-10-09T21:25:50.687Z,66.00
2022-10-09T21:28:19.309Z,66.10
2022-10-09T21:30:47.419Z,66.10
2022-10-09T21:33:16.722Z,66.30
2022-10-09T21:35:46.369Z,66.20
2022-10-09T21:38:16.453Z,66.70
2022-10-09T21:40:44.063Z,66.30
2022-10-09T21:43:11.758Z,66.50
2022-10-09T21:45:40.185Z,66.50
2022-10-09T21:48:08.185Z,66.50
2022-10-09T21:50:37.034Z,66.50
2022-10-09T21:53:04.833Z,66.90
2022-10-09T21:55:32.374Z,66.70
2022-10-09T21:57:59.888Z,67.00
2022-10-09T22:00:27.327Z,66.70
2022-10-09T22:02:54.831Z,67.20
2022-10-09T22:05:22.315Z,67.10
2022-10-09T22:07:51.018Z,66.80
2022-10-09T22:10:18.889Z,67.10
2022-10-09T22:12:46.429Z,66.80
2022-10-09T22:15:13.951Z,66.70
2022-10-09T22:17:41.455Z,67.30
2022-10-09T22:20:09.868Z,67.40
2022-10-09T22:22:37.359Z,67.60
2022-10-09T22:25:07.366Z,67.20
2022-10-09T22:27:34.861Z,67.10
2022-10-09T22:30:02.510Z,67.00
2022-10-09T22:32:29.866Z,67.40
2022-10-09T22:34:57.261Z,67.30
2022-10-09T22:37:25.034Z,67.50
2022-10-09T22:39:52.916Z,67.00
2022-10-09T22:42:21.776Z,67.80
2022-10-09T22:44:49.163Z,67.40
2022-10-09T22:47:17.132Z,67.70
2022-10-09T22:49:44.630Z,67.60
2022-10-09T22:52:12.139Z,67.40
2022-10-09T22:54:39.555Z,67.90
2022-10-09T22:57:07.042Z,68.00
2022-10-09T22:59:35.877Z,68.40
2022-10-09T23:02:03.306Z,68.10
2022-10-09T23:04:35.920Z,68.80
2022-10-09T23:07:03.885Z,68.30
2022-10-09T23:09:32.824Z,68.50
2022-10-09T23:12:00.577Z,69.00
2022-10-09T23:14:28.462Z,69.00
2022-10-09T23:16:57.289Z,69.40
2022-10-09T23:19:24.836Z,69.30
2022-10-09T23:21:52.380Z,68.80
2022-10-09T23:24:19.856Z,69.10
2022-10-09T23:26:51.114Z,68.90
2022-10-09T23:29:19.947Z,69.40
2022-10-09T23:31:48.617Z,69.50
2022-10-09T23:34:17.378Z,69.90
2022-10-09T23:36:44.759Z,69.70
2022-10-09T23:39:12.768Z,69.50
2022-10-09T23:41:40.719Z,69.60
2022-10-09T23:44:08.223Z,70.10
2022-10-09T23:46:37.572Z,70.10
2022-10-09T23:49:12.577Z,70.00
2022-10-09T23:51:41.303Z,70.20
2022-10-09T23:54:08.972Z,70.10
2022-10-09T23:56:37.373Z,70.20
2022-10-09T23:59:08.598Z,70.30
